Weather at Ashgabat International Airport

Public forecast

Using degrees Celsius for public forecast. Weather courtesy of forecast.io.

Current aviation weather report (METAR) for Ashgabat International Airport

Report is more than 6 hours old.

2022/11/14 15:00 (retrieved 2 years ago)

UTAA 141500Z VRB02KT 8000 3900W HZ NSC 13/02 Q1016 R88/70D NOSIG

Aviation forecast (TAF) for Ashgabat International Airport

Forecast is more than 12 hours old.

2023/02/22 18:04 (retrieved 1 year ago)

TAF UTAA 221650Z 2218/2318 27014KT 6000 SCT050 TEMPO 2218/2224 33014KT TEMPO 2300/2304 VRB04KT 3000 HZ